Time;durP1;ratioP1;P1;durP2;ratioP2;P2;SDS_P1;SDS_P2;PMS_P1;PMS_P2;Temp;Humidity;BMP_temperature;BMP_pressure;BME280_temperature;BME280_humidity;BME280_pressure;Samples;Min_cycle;Max_cycle;Signal;HPM_P1;HPM_P2
2022/07/04 00:02:09;;;;;;;3.42;1.38;;;;;;;;;;5016442;28;20546;-63
2022/07/04 00:04:35;;;;;;;1.80;1.30;;;;;;;;;;5023353;28;20029;-63
2022/07/04 00:07:00;;;;;;;4.10;1.60;;;;;;;;;;5031314;28;20128;-63
2022/07/04 00:09:25;;;;;;;5.53;1.55;;;;;;;;;;5016601;28;20041;-63
2022/07/04 00:11:51;;;;;;;1.98;1.45;;;;;;;;;;5030695;28;20045;-63
2022/07/04 00:14:17;;;;;;;3.05;1.63;;;;;;;;;;5023271;28;20030;-63
2022/07/04 00:16:42;;;;;;;4.93;1.65;;;;;;;;;;5022699;28;20359;-63
2022/07/04 00:19:07;;;;;;;4.35;1.60;;;;;;;;;;5021396;28;20062;-63
2022/07/04 00:21:33;;;;;;;4.85;1.73;;;;;;;;;;5023821;28;20382;-63
2022/07/04 00:23:59;;;;;;;4.63;1.67;;;;;;;;;;5030767;28;20136;-63
2022/07/04 00:26:24;;;;;;;2.50;1.40;;;;;;;;;;5032302;28;20030;-63
2022/07/04 00:28:49;;;;;;;4.40;1.85;;;;;;;;;;5028822;28;20053;-63
2022/07/04 00:31:15;;;;;;;5.22;1.65;;;;;;;;;;5029971;28;20029;-63
2022/07/04 00:33:40;;;;;;;3.53;1.60;;;;;;;;;;5028609;28;20090;-65
2022/07/04 00:36:06;;;;;;;2.95;1.70;;;;;;;;;;5004095;28;20041;-64
2022/07/04 00:38:32;;;;;;;2.72;1.67;;;;;;;;;;5029904;28;20033;-64
2022/07/04 00:40:57;;;;;;;3.78;1.90;;;;;;;;;;5019216;28;20858;-63
2022/07/04 00:43:24;;;;;;;3.63;1.70;;;;;;;;;;5010960;28;20505;-63
2022/07/04 00:45:50;;;;;;;3.05;1.63;;;;;;;;;;5021153;28;20462;-63
2022/07/04 00:48:18;;;;;;;2.70;1.92;;;;;;;;;;5030275;28;20137;-63
2022/07/04 00:50:46;;;;;;;3.80;1.83;;;;;;;;;;5012004;28;20975;-63
2022/07/04 00:53:13;;;;;;;4.35;2.20;;;;;;;;;;5018042;28;20036;-63
2022/07/04 00:55:38;;;;;;;3.05;1.88;;;;;;;;;;5030654;28;20084;-64
2022/07/04 00:58:04;;;;;;;7.53;2.22;;;;;;;;;;5031654;28;20029;-64
2022/07/04 01:00:30;;;;;;;4.05;2.25;;;;;;;;;;5030936;28;20048;-63
2022/07/04 01:02:55;;;;;;;3.28;1.98;;;;;;;;;;5030729;28;20503;-63
2022/07/04 01:05:21;;;;;;;5.38;2.20;;;;;;;;;;5029255;28;20040;-63
2022/07/04 01:07:46;;;;;;;4.38;2.08;;;;;;;;;;5028871;28;20029;-63
2022/07/04 01:10:12;;;;;;;4.03;2.10;;;;;;;;;;5031636;28;20064;-63
2022/07/04 01:12:38;;;;;;;4.20;2.20;;;;;;;;;;5021783;28;20044;-63
2022/07/04 01:15:05;;;;;;;2.92;2.10;;;;;;;;;;5029170;28;20029;-63
2022/07/04 01:17:31;;;;;;;3.78;2.50;;;;;;;;;;5029223;28;20041;-63
2022/07/04 01:19:57;;;;;;;6.97;2.20;;;;;;;;;;5030027;28;20029;-63
2022/07/04 01:22:22;;;;;;;5.63;2.40;;;;;;;;;;5029680;28;20029;-63
2022/07/04 01:24:48;;;;;;;3.35;2.20;;;;;;;;;;5017450;28;20086;-63
2022/07/04 01:27:14;;;;;;;6.57;2.42;;;;;;;;;;5020177;28;20026;-63
2022/07/04 01:29:40;;;;;;;6.22;2.67;;;;;;;;;;5030286;28;20038;-63
2022/07/04 01:32:09;;;;;;;4.60;2.78;;;;;;;;;;5026484;28;20048;-63
2022/07/04 01:34:35;;;;;;;5.90;2.60;;;;;;;;;;5025002;28;20470;-62
2022/07/04 01:37:01;;;;;;;6.35;2.85;;;;;;;;;;5025551;28;20176;-62
2022/07/04 01:39:27;;;;;;;6.68;3.00;;;;;;;;;;5029433;28;20055;-63
2022/07/04 01:41:53;;;;;;;5.45;2.85;;;;;;;;;;5027472;28;20536;-63
2022/07/04 01:44:18;;;;;;;4.45;2.92;;;;;;;;;;5023637;28;20108;-63
2022/07/04 01:46:44;;;;;;;7.03;2.85;;;;;;;;;;5031419;28;20034;-64
2022/07/04 01:49:09;;;;;;;6.70;2.88;;;;;;;;;;5025411;28;20049;-63
2022/07/04 01:51:35;;;;;;;6.57;3.00;;;;;;;;;;5031830;28;20390;-63
2022/07/04 01:54:00;;;;;;;8.93;3.20;;;;;;;;;;5025502;28;20065;-63
2022/07/04 01:56:26;;;;;;;6.47;3.30;;;;;;;;;;5006223;28;20033;-63
2022/07/04 01:58:51;;;;;;;8.05;3.50;;;;;;;;;;5020500;28;20042;-63
2022/07/04 02:01:29;;;;;;;7.45;3.20;;;;;;;;;;5029397;28;20096;-63
2022/07/04 02:03:55;;;;;;;6.35;3.58;;;;;;;;;;5026530;28;20033;-64
2022/07/04 02:06:21;;;;;;;6.00;3.42;;;;;;;;;;5030872;28;20026;-63
2022/07/04 02:13:00;;;;;;;6.28;3.50;;;;;;;;;;5012021;28;20041;-62
2022/07/04 02:14:15;;;;;;;7.60;3.35;;;;;;;;;;5012650;28;20046;-62
2022/07/04 02:16:41;;;;;;;6.10;3.70;;;;;;;;;;5009216;28;20111;-62
2022/07/04 02:19:06;;;;;;;5.00;3.20;;;;;;;;;;5029598;28;20053;-63
2022/07/04 02:21:31;;;;;;;6.38;3.60;;;;;;;;;;5029777;28;20037;-63
2022/07/04 02:23:57;;;;;;;6.57;3.60;;;;;;;;;;5017480;28;20112;-62
2022/07/04 02:26:22;;;;;;;6.07;3.70;;;;;;;;;;5011781;28;20411;-62
2022/07/04 02:28:47;;;;;;;6.93;3.50;;;;;;;;;;5018776;28;20040;-64
2022/07/04 02:31:13;;;;;;;7.20;3.63;;;;;;;;;;5029454;28;20034;-62
2022/07/04 02:33:38;;;;;;;8.13;3.58;;;;;;;;;;5029329;28;20029;-62
2022/07/04 02:36:04;;;;;;;7.03;3.90;;;;;;;;;;5029765;28;20931;-62
2022/07/04 02:38:30;;;;;;;6.43;3.80;;;;;;;;;;5027796;28;20037;-62
2022/07/04 02:40:55;;;;;;;8.20;4.20;;;;;;;;;;5028440;28;20466;-62
2022/07/04 02:43:20;;;;;;;8.40;3.63;;;;;;;;;;5028260;28;20038;-63
2022/07/04 02:45:46;;;;;;;6.22;4.00;;;;;;;;;;5026613;28;20061;-64
2022/07/04 02:48:11;;;;;;;6.85;3.95;;;;;;;;;;5020817;28;20049;-62
2022/07/04 02:50:36;;;;;;;6.72;3.72;;;;;;;;;;5033291;28;20394;-62
2022/07/04 02:53:02;;;;;;;6.22;3.78;;;;;;;;;;5030472;28;20456;-62
2022/07/04 02:55:27;;;;;;;6.43;3.92;;;;;;;;;;5034076;28;20044;-62
2022/07/04 02:57:53;;;;;;;7.65;3.83;;;;;;;;;;5031495;28;20037;-63
2022/07/04 03:00:18;;;;;;;7.95;3.55;;;;;;;;;;5033034;28;20394;-62
2022/07/04 03:02:44;;;;;;;7.85;4.13;;;;;;;;;;5030745;28;20121;-62
2022/07/04 03:05:09;;;;;;;7.03;4.05;;;;;;;;;;5032094;28;20460;-62
2022/07/04 03:07:35;;;;;;;11.02;4.40;;;;;;;;;;5033089;28;20035;-63
2022/07/04 03:10:00;;;;;;;8.80;4.05;;;;;;;;;;5030047;28;20026;-63
2022/07/04 03:12:26;;;;;;;7.15;4.05;;;;;;;;;;5034954;28;20116;-62
2022/07/04 03:14:53;;;;;;;6.75;3.97;;;;;;;;;;5030493;28;20034;-63
2022/07/04 03:17:18;;;;;;;6.45;3.90;;;;;;;;;;5027842;28;20037;-63
2022/07/04 03:19:44;;;;;;;10.15;3.70;;;;;;;;;;5034398;28;20032;-63
2022/07/04 03:22:09;;;;;;;7.45;4.07;;;;;;;;;;5032875;28;20516;-62
2022/07/04 03:24:35;;;;;;;7.47;3.88;;;;;;;;;;5017025;28;20036;-62
2022/07/04 03:27:00;;;;;;;6.05;3.80;;;;;;;;;;5031100;28;20037;-62
2022/07/04 03:29:26;;;;;;;6.43;3.90;;;;;;;;;;5033261;28;20060;-62
2022/07/04 03:31:51;;;;;;;7.28;4.00;;;;;;;;;;5033013;28;20052;-63
2022/07/04 03:34:16;;;;;;;5.93;4.00;;;;;;;;;;5032858;28;20112;-62
2022/07/04 03:36:42;;;;;;;9.23;4.35;;;;;;;;;;5031740;28;20037;-62
2022/07/04 03:39:07;;;;;;;9.93;4.40;;;;;;;;;;5031551;28;20033;-63
2022/07/04 03:41:33;;;;;;;9.00;4.25;;;;;;;;;;5033841;28;20041;-62
2022/07/04 03:43:58;;;;;;;7.43;4.32;;;;;;;;;;5030914;28;20072;-62
2022/07/04 03:46:24;;;;;;;12.07;4.25;;;;;;;;;;5033047;28;20150;-62
2022/07/04 03:48:49;;;;;;;6.20;4.35;;;;;;;;;;5030589;28;20471;-63
2022/07/04 03:51:15;;;;;;;10.20;4.43;;;;;;;;;;5033789;28;20069;-62
2022/07/04 03:53:41;;;;;;;7.35;4.30;;;;;;;;;;5030983;28;20445;-63
2022/07/04 03:56:08;;;;;;;11.75;4.53;;;;;;;;;;5031934;28;20033;-64
2022/07/04 03:58:33;;;;;;;11.18;4.78;;;;;;;;;;5029699;28;20112;-64
2022/07/04 04:00:59;;;;;;;8.57;4.82;;;;;;;;;;5026588;28;20133;-62
2022/07/04 04:06:08;;;;;;;8.38;4.95;;;;;;;;;;5030549;28;20040;-64
2022/07/04 04:08:34;;;;;;;7.40;4.88;;;;;;;;;;5025364;28;20033;-64
2022/07/04 04:10:59;;;;;;;7.22;4.97;;;;;;;;;;5031554;28;20029;-64
2022/07/04 04:13:25;;;;;;;8.70;4.97;;;;;;;;;;5031795;28;20108;-63
2022/07/04 04:15:50;;;;;;;6.78;4.63;;;;;;;;;;5019888;28;20052;-62
2022/07/04 04:18:16;;;;;;;10.93;4.50;;;;;;;;;;5031882;28;20021;-62
2022/07/04 04:20:41;;;;;;;8.02;4.78;;;;;;;;;;5014839;28;20477;-62
2022/07/04 04:23:06;;;;;;;10.13;5.07;;;;;;;;;;5028377;28;20462;-62
2022/07/04 04:25:32;;;;;;;8.43;5.00;;;;;;;;;;5033205;28;20375;-62
2022/07/04 04:27:57;;;;;;;9.10;5.43;;;;;;;;;;5030324;28;20394;-63
2022/07/04 04:30:23;;;;;;;11.80;5.60;;;;;;;;;;5032057;28;20061;-62
2022/07/04 04:32:48;;;;;;;8.02;5.22;;;;;;;;;;5031130;28;20108;-63
2022/07/04 04:35:13;;;;;;;9.60;5.57;;;;;;;;;;5014052;28;20034;-64
2022/07/04 04:37:39;;;;;;;8.43;5.20;;;;;;;;;;5031830;28;20114;-64
2022/07/04 04:40:05;;;;;;;8.93;5.47;;;;;;;;;;5030102;28;20033;-64
2022/07/04 04:42:31;;;;;;;8.52;5.20;;;;;;;;;;5031649;28;20549;-64
2022/07/04 04:44:56;;;;;;;9.93;5.55;;;;;;;;;;5031638;28;20116;-65
2022/07/04 04:47:22;;;;;;;9.07;5.63;;;;;;;;;;5031504;28;20135;-63
2022/07/04 04:49:47;;;;;;;8.63;5.82;;;;;;;;;;5031672;28;20124;-64
2022/07/04 04:52:13;;;;;;;8.93;5.50;;;;;;;;;;5028611;28;20113;-64
2022/07/04 04:54:39;;;;;;;16.95;6.28;;;;;;;;;;5007625;28;20057;-58
2022/07/04 04:57:05;;;;;;;9.63;5.80;;;;;;;;;;5009623;28;20029;-59
2022/07/04 04:59:31;;;;;;;10.98;5.95;;;;;;;;;;5024254;28;20486;-60
2022/07/04 05:01:58;;;;;;;9.32;5.30;;;;;;;;;;5011885;28;20463;-60
2022/07/04 05:04:23;;;;;;;10.80;5.90;;;;;;;;;;5028526;28;20038;-58
2022/07/04 05:06:49;;;;;;;12.77;5.57;;;;;;;;;;5029041;28;20029;-60
2022/07/04 05:09:14;;;;;;;16.17;5.72;;;;;;;;;;5031844;28;20118;-59
2022/07/04 05:11:40;;;;;;;14.68;6.03;;;;;;;;;;5031830;28;20034;-59
2022/07/04 05:14:05;;;;;;;12.05;6.30;;;;;;;;;;5031439;28;20022;-60
2022/07/04 05:16:31;;;;;;;8.07;5.43;;;;;;;;;;5026841;28;20120;-58
2022/07/04 05:18:56;;;;;;;11.52;6.00;;;;;;;;;;5012487;28;20100;-60
2022/07/04 05:21:21;;;;;;;12.63;6.50;;;;;;;;;;5021773;28;20041;-58
2022/07/04 05:23:47;;;;;;;12.82;6.75;;;;;;;;;;5032376;28;20030;-60
2022/07/04 05:26:12;;;;;;;13.00;7.05;;;;;;;;;;5022880;28;20502;-59
2022/07/04 05:28:38;;;;;;;16.63;6.82;;;;;;;;;;5012055;28;20037;-55
2022/07/04 05:31:03;;;;;;;12.65;6.57;;;;;;;;;;5029118;28;20084;-60
2022/07/04 05:33:28;;;;;;;11.50;6.38;;;;;;;;;;5031365;28;20581;-60
2022/07/04 05:35:54;;;;;;;12.63;6.93;;;;;;;;;;5030073;28;20038;-60
2022/07/04 05:38:19;;;;;;;14.80;6.90;;;;;;;;;;5028372;28;20083;-61
2022/07/04 05:40:45;;;;;;;13.20;6.45;;;;;;;;;;5029801;28;20040;-61
2022/07/04 05:43:11;;;;;;;11.27;6.70;;;;;;;;;;5030928;28;20076;-58
2022/07/04 05:45:37;;;;;;;15.38;6.72;;;;;;;;;;5028166;28;20040;-61
2022/07/04 05:48:02;;;;;;;10.95;6.20;;;;;;;;;;5031010;28;20042;-61
2022/07/04 05:50:28;;;;;;;12.13;6.40;;;;;;;;;;5031672;28;20460;-62
2022/07/04 05:52:53;;;;;;;11.70;6.45;;;;;;;;;;5019221;28;20036;-61
2022/07/04 05:55:19;;;;;;;13.82;5.88;;;;;;;;;;5011325;28;20117;-61
2022/07/04 05:57:44;;;;;;;10.93;6.47;;;;;;;;;;5011940;28;20026;-61
2022/07/04 06:00:11;;;;;;;13.60;6.00;;;;;;;;;;5010785;28;20038;-61
2022/07/04 06:02:37;;;;;;;11.95;5.65;;;;;;;;;;5011879;28;20116;-61
2022/07/04 06:05:02;;;;;;;8.02;5.32;;;;;;;;;;5011335;28;20116;-62
2022/07/04 06:07:28;;;;;;;8.85;5.57;;;;;;;;;;5021312;28;20091;-61
2022/07/04 06:09:53;;;;;;;15.43;5.75;;;;;;;;;;5031186;28;20033;-61
2022/07/04 06:12:19;;;;;;;14.25;5.53;;;;;;;;;;5030588;28;20363;-62
2022/07/04 06:14:45;;;;;;;13.73;5.10;;;;;;;;;;5031626;28;20041;-62
2022/07/04 06:17:11;;;;;;;9.77;5.18;;;;;;;;;;5011405;28;20045;-61
2022/07/04 06:19:37;;;;;;;10.48;4.80;;;;;;;;;;5030982;28;20386;-61
2022/07/04 06:22:03;;;;;;;9.55;5.55;;;;;;;;;;5029871;28;20592;-62
2022/07/04 06:24:29;;;;;;;12.23;5.13;;;;;;;;;;5030262;28;20068;-61
2022/07/04 06:26:54;;;;;;;11.70;4.47;;;;;;;;;;5031108;28;20142;-61
2022/07/04 06:29:19;;;;;;;8.57;4.60;;;;;;;;;;5030305;28;20578;-62
2022/07/04 06:31:45;;;;;;;11.20;4.40;;;;;;;;;;5027315;28;20026;-61
2022/07/04 06:37:02;;;;;;;10.82;4.40;;;;;;;;;;5021692;28;20406;-62
2022/07/04 06:39:28;;;;;;;13.18;4.57;;;;;;;;;;5028813;28;20032;-61
2022/07/04 06:41:53;;;;;;;12.40;4.78;;;;;;;;;;5025272;28;20052;-62
2022/07/04 06:44:19;;;;;;;7.97;3.70;;;;;;;;;;5014846;28;20026;-61
2022/07/04 06:46:45;;;;;;;7.45;3.80;;;;;;;;;;5011668;28;20100;-60
2022/07/04 06:49:11;;;;;;;8.90;3.58;;;;;;;;;;5030498;28;20049;-59
2022/07/04 06:51:37;;;;;;;9.93;4.20;;;;;;;;;;5009546;28;20044;-59
2022/07/04 06:54:02;;;;;;;10.60;4.43;;;;;;;;;;5010561;28;20048;-60
2022/07/04 06:56:28;;;;;;;12.38;5.30;;;;;;;;;;5011444;28;20038;-59
2022/07/04 06:58:53;;;;;;;11.27;4.70;;;;;;;;;;5026342;28;20414;-60
2022/07/04 07:01:19;;;;;;;12.32;4.40;;;;;;;;;;5024113;28;20470;-59
2022/07/04 07:03:44;;;;;;;10.63;4.07;;;;;;;;;;5027432;28;20091;-56
2022/07/04 07:06:10;;;;;;;9.45;4.70;;;;;;;;;;5027629;28;20029;-58
2022/07/04 07:08:35;;;;;;;8.23;3.88;;;;;;;;;;5030263;28;20120;-57
2022/07/04 07:11:13;;;;;;;12.00;3.50;;;;;;;;;;5026107;28;20037;-59
2022/07/04 07:13:46;;;;;;;7.88;3.00;;;;;;;;;;5024567;28;20366;-58
2022/07/04 07:16:13;;;;;;;5.20;2.90;;;;;;;;;;5029481;28;20049;-60
2022/07/04 07:18:39;;;;;;;10.20;3.38;;;;;;;;;;5027048;28;20033;-59
2022/07/04 07:21:04;;;;;;;10.00;4.05;;;;;;;;;;5029141;28;20413;-59
2022/07/04 07:23:30;;;;;;;8.55;3.40;;;;;;;;;;5027786;28;20029;-59
2022/07/04 07:25:55;;;;;;;13.80;3.80;;;;;;;;;;5030538;28;20036;-61
2022/07/04 07:28:21;;;;;;;9.90;3.47;;;;;;;;;;5029388;28;20090;-58
2022/07/04 07:30:46;;;;;;;8.40;3.33;;;;;;;;;;5030702;28;20442;-58
2022/07/04 07:33:12;;;;;;;8.90;2.88;;;;;;;;;;5025115;28;20037;-58
2022/07/04 07:35:37;;;;;;;7.40;2.67;;;;;;;;;;5015147;28;20037;-58
2022/07/04 07:38:03;;;;;;;6.72;2.50;;;;;;;;;;5027300;28;20030;-59
2022/07/04 07:40:29;;;;;;;5.97;2.97;;;;;;;;;;5030470;28;20033;-60
2022/07/04 07:42:54;;;;;;;6.05;2.65;;;;;;;;;;5034280;28;20433;-59
2022/07/04 07:45:21;;;;;;;4.38;1.98;;;;;;;;;;5031083;28;20056;-59
2022/07/04 07:47:46;;;;;;;4.45;2.15;;;;;;;;;;5034063;28;20117;-58
2022/07/04 07:50:12;;;;;;;4.38;2.35;;;;;;;;;;5032202;28;20117;-56
2022/07/04 07:52:38;;;;;;;4.43;2.10;;;;;;;;;;5028893;28;20116;-60
2022/07/04 07:55:04;;;;;;;4.68;2.30;;;;;;;;;;5032542;28;20030;-60
2022/07/04 07:57:30;;;;;;;5.97;2.30;;;;;;;;;;5014631;28;20095;-59
2022/07/04 07:59:56;;;;;;;5.22;2.15;;;;;;;;;;5021573;28;20426;-60
2022/07/04 08:04:34;;;;;;;5.43;2.28;;;;;;;;;;5028238;28;20029;-59
2022/07/04 08:05:08;;;;;;;7.15;2.30;;;;;;;;;;5027372;28;20042;-61
2022/07/04 08:07:33;;;;;;;7.70;2.60;;;;;;;;;;5017731;28;20108;-58
2022/07/04 08:09:59;;;;;;;5.80;2.60;;;;;;;;;;5022329;28;20129;-58
2022/07/04 08:12:24;;;;;;;4.10;2.38;;;;;;;;;;5014766;28;20029;-62
2022/07/04 08:14:50;;;;;;;9.07;2.92;;;;;;;;;;5015974;28;20044;-62
2022/07/04 08:17:15;;;;;;;5.50;2.70;;;;;;;;;;5032443;28;20026;-63
2022/07/04 08:19:41;;;;;;;6.50;2.72;;;;;;;;;;5031188;28;20091;-62
2022/07/04 08:22:06;;;;;;;5.35;2.75;;;;;;;;;;5029842;28;20394;-63
2022/07/04 08:24:32;;;;;;;9.00;2.55;;;;;;;;;;5029252;28;20057;-63
2022/07/04 08:26:57;;;;;;;5.80;3.25;;;;;;;;;;5033468;28;20041;-63
2022/07/04 08:29:22;;;;;;;5.70;2.60;;;;;;;;;;5032827;28;20032;-59
2022/07/04 08:31:48;;;;;;;5.00;2.28;;;;;;;;;;5030256;28;20433;-59
2022/07/04 08:34:14;;;;;;;9.77;2.88;;;;;;;;;;5027165;28;20087;-60
2022/07/04 08:36:39;;;;;;;7.30;2.50;;;;;;;;;;5030745;28;20422;-60
2022/07/04 08:39:05;;;;;;;4.38;2.20;;;;;;;;;;5032468;28;20367;-60
2022/07/04 08:41:38;;;;;;;3.63;1.90;;;;;;;;;;5033221;28;20029;-60
2022/07/04 08:44:06;;;;;;;4.78;1.70;;;;;;;;;;5030318;28;20466;-61
2022/07/04 08:46:32;;;;;;;6.43;2.15;;;;;;;;;;5013408;28;20037;-60
2022/07/04 08:49:03;;;;;;;4.28;1.73;;;;;;;;;;5013294;28;20046;-59
2022/07/04 08:51:52;;;;;;;4.85;1.85;;;;;;;;;;5013302;28;20045;-60
2022/07/04 08:59:50;;;;;;;4.40;1.70;;;;;;;;;;5032577;28;20045;-61
2022/07/04 09:02:17;;;;;;;5.30;1.70;;;;;;;;;;5024884;28;20041;-63
2022/07/04 09:04:43;;;;;;;5.32;2.00;;;;;;;;;;5032603;28;20033;-62
2022/07/04 09:07:12;;;;;;;5.38;1.80;;;;;;;;;;5028152;28;20098;-63
2022/07/04 09:09:39;;;;;;;4.13;1.65;;;;;;;;;;5012631;28;20057;-61
2022/07/04 09:12:05;;;;;;;3.50;1.73;;;;;;;;;;5026060;28;20033;-62
2022/07/04 09:14:31;;;;;;;5.15;1.90;;;;;;;;;;5031130;28;20527;-61
2022/07/04 09:16:57;;;;;;;4.22;1.80;;;;;;;;;;5025088;28;20041;-61
2022/07/04 09:19:23;;;;;;;3.58;1.60;;;;;;;;;;5023345;28;20600;-62
2022/07/04 09:21:49;;;;;;;6.38;1.50;;;;;;;;;;5012140;28;20398;-62
2022/07/04 09:24:15;;;;;;;5.45;1.67;;;;;;;;;;5011812;28;20387;-62
2022/07/04 09:26:45;;;;;;;4.07;1.60;;;;;;;;;;5012264;28;20026;-62
2022/07/04 09:29:10;;;;;;;5.80;1.90;;;;;;;;;;5018000;28;20033;-63
2022/07/04 09:31:37;;;;;;;4.65;1.70;;;;;;;;;;5030424;28;20064;-64
2022/07/04 09:34:04;;;;;;;12.38;1.85;;;;;;;;;;5028848;28;20033;-63
2022/07/04 09:36:38;;;;;;;4.55;1.70;;;;;;;;;;5026304;28;20139;-62
2022/07/04 09:39:21;;;;;;;4.32;1.52;;;;;;;;;;5029833;28;20029;-63
2022/07/04 09:41:58;;;;;;;2.50;1.30;;;;;;;;;;5029906;28;20160;-62
2022/07/04 09:44:44;;;;;;;3.88;1.40;;;;;;;;;;5027105;28;20052;-62
2022/07/04 09:47:27;;;;;;;5.15;1.50;;;;;;;;;;5030480;28;20083;-62
2022/07/04 09:50:05;;;;;;;5.28;1.58;;;;;;;;;;5031878;28;20079;-63
2022/07/04 09:52:31;;;;;;;4.97;1.50;;;;;;;;;;5028434;28;20034;-62
2022/07/04 09:55:02;;;;;;;4.35;1.60;;;;;;;;;;5031940;28;20044;-61
2022/07/04 09:57:30;;;;;;;5.07;1.75;;;;;;;;;;5029577;28;20071;-61
2022/07/04 09:59:55;;;;;;;5.22;1.70;;;;;;;;;;5031629;28;20033;-62
2022/07/04 10:02:21;;;;;;;4.57;1.80;;;;;;;;;;5027243;28;20163;-62
2022/07/04 10:04:51;;;;;;;4.30;1.70;;;;;;;;;;5031958;28;20569;-62
2022/07/04 10:07:43;;;;;;;5.70;2.00;;;;;;;;;;5030212;28;20025;-63
2022/07/04 10:10:37;;;;;;;5.45;1.85;;;;;;;;;;5030847;28;20042;-62
2022/07/04 10:13:08;;;;;;;5.05;1.60;;;;;;;;;;5029009;28;20056;-62
2022/07/04 10:15:37;;;;;;;5.75;1.80;;;;;;;;;;5031557;28;20033;-62
2022/07/04 10:18:03;;;;;;;6.38;1.80;;;;;;;;;;5030784;28;20038;-62
2022/07/04 10:20:29;;;;;;;4.57;1.70;;;;;;;;;;5024226;28;20037;-63
2022/07/04 10:22:56;;;;;;;3.85;1.73;;;;;;;;;;5031448;28;20029;-63
2022/07/04 10:25:21;;;;;;;3.50;1.83;;;;;;;;;;5029154;28;20048;-63
2022/07/04 10:27:50;;;;;;;5.60;2.13;;;;;;;;;;5031385;28;20037;-61
2022/07/04 10:30:21;;;;;;;3.28;1.42;;;;;;;;;;5026860;28;20040;-63
2022/07/04 10:32:48;;;;;;;4.70;1.40;;;;;;;;;;5028237;28;20044;-63
2022/07/04 10:35:15;;;;;;;5.57;1.70;;;;;;;;;;5029922;28;20041;-63
2022/07/04 10:38:04;;;;;;;5.10;1.70;;;;;;;;;;5030502;28;20179;-63
2022/07/04 10:40:42;;;;;;;3.47;1.73;;;;;;;;;;5030273;28;20116;-63
2022/07/04 10:43:42;;;;;;;6.30;1.90;;;;;;;;;;5029615;28;20025;-62
2022/07/04 10:46:13;;;;;;;4.25;1.75;;;;;;;;;;5030481;28;20080;-61
2022/07/04 10:48:53;;;;;;;4.40;1.60;;;;;;;;;;5030089;28;20045;-62
2022/07/04 10:51:47;;;;;;;4.53;2.03;;;;;;;;;;5029893;28;20025;-62
2022/07/04 10:54:31;;;;;;;3.63;1.70;;;;;;;;;;5030268;28;20033;-61
2022/07/04 10:57:10;;;;;;;5.00;1.52;;;;;;;;;;5030124;28;20041;-61
2022/07/04 10:59:36;;;;;;;3.75;1.50;;;;;;;;;;5031290;28;20038;-61
2022/07/04 11:02:04;;;;;;;3.05;1.58;;;;;;;;;;5030345;28;20030;-61
2022/07/04 11:04:47;;;;;;;5.55;1.80;;;;;;;;;;5030165;28;20045;-62
2022/07/04 11:07:14;;;;;;;4.05;1.60;;;;;;;;;;5026790;28;20502;-60
2022/07/04 11:09:40;;;;;;;3.60;1.50;;;;;;;;;;5034809;28;20033;-60
2022/07/04 11:12:06;;;;;;;2.47;1.30;;;;;;;;;;5010624;28;20033;-61
2022/07/04 11:14:31;;;;;;;4.20;1.50;;;;;;;;;;5033387;28;20025;-61
2022/07/04 11:16:57;;;;;;;3.97;1.52;;;;;;;;;;5034792;28;20037;-60
2022/07/04 11:19:22;;;;;;;3.60;1.70;;;;;;;;;;5032464;28;20389;-62
2022/07/04 11:21:47;;;;;;;5.80;1.90;;;;;;;;;;5033494;28;20096;-60
2022/07/04 11:24:13;;;;;;;3.25;1.38;;;;;;;;;;5016331;28;20033;-60
2022/07/04 11:26:39;;;;;;;4.72;1.77;;;;;;;;;;5014755;28;20034;-60
2022/07/04 11:29:04;;;;;;;2.80;1.63;;;;;;;;;;5014699;28;20026;-61
2022/07/04 11:31:37;;;;;;;5.22;1.73;;;;;;;;;;5028761;28;20038;-62
2022/07/04 11:34:03;;;;;;;4.07;1.63;;;;;;;;;;5030214;28;20037;-60
2022/07/04 11:36:28;;;;;;;2.85;1.15;;;;;;;;;;5033567;28;20510;-59
2022/07/04 11:38:59;;;;;;;3.05;1.20;;;;;;;;;;5027164;28;20478;-59
2022/07/04 11:47:13;;;;;;;2.08;1.20;;;;;;;;;;5031670;28;20105;-60
2022/07/04 11:49:58;;;;;;;3.03;1.10;;;;;;;;;;5031515;28;20076;-60
2022/07/04 11:52:46;;;;;;;5.32;1.40;;;;;;;;;;5030663;28;20072;-59
2022/07/04 11:55:14;;;;;;;2.22;1.30;;;;;;;;;;5027896;28;20536;-61
2022/07/04 11:57:44;;;;;;;4.00;1.65;;;;;;;;;;5033160;28;20071;-60
2022/07/04 12:00:13;;;;;;;4.00;1.23;;;;;;;;;;5033383;28;20025;-61
2022/07/04 12:02:38;;;;;;;4.40;1.30;;;;;;;;;;5022305;28;20406;-61
2022/07/04 12:05:06;;;;;;;3.30;1.50;;;;;;;;;;5033971;28;20025;-61
2022/07/04 12:07:34;;;;;;;3.53;1.40;;;;;;;;;;5032453;28;20040;-61
2022/07/04 12:10:26;;;;;;;3.15;1.55;;;;;;;;;;5033225;28;20044;-60
2022/07/04 12:12:52;;;;;;;3.42;1.30;;;;;;;;;;5030493;28;20056;-60
2022/07/04 12:15:18;;;;;;;4.00;1.15;;;;;;;;;;5030581;28;20080;-60
2022/07/04 12:17:44;;;;;;;5.03;1.67;;;;;;;;;;5032977;28;20072;-60
2022/07/04 12:20:20;;;;;;;3.80;1.30;;;;;;;;;;5031329;28;20057;-62
2022/07/04 12:22:59;;;;;;;4.97;1.30;;;;;;;;;;5032441;28;20033;-60
2022/07/04 12:25:37;;;;;;;4.00;1.40;;;;;;;;;;5029775;28;20504;-61
2022/07/04 12:28:14;;;;;;;3.60;1.52;;;;;;;;;;5033587;28;20035;-61
2022/07/04 12:30:54;;;;;;;2.15;1.30;;;;;;;;;;5032109;28;20075;-61
2022/07/04 12:33:25;;;;;;;2.75;1.40;;;;;;;;;;5028163;28;20037;-61
2022/07/04 12:36:03;;;;;;;3.28;1.20;;;;;;;;;;5013322;28;20563;-60
2022/07/04 12:38:28;;;;;;;4.38;1.27;;;;;;;;;;5015000;28;20032;-60
2022/07/04 12:41:11;;;;;;;6.28;1.38;;;;;;;;;;5032375;28;20025;-61
2022/07/04 12:43:39;;;;;;;2.10;1.20;;;;;;;;;;5030291;28;20037;-62
2022/07/04 12:46:04;;;;;;;2.67;1.30;;;;;;;;;;5033211;28;20426;-60
2022/07/04 12:48:30;;;;;;;3.78;1.40;;;;;;;;;;5030315;28;20153;-61
2022/07/04 12:51:18;;;;;;;2.30;1.30;;;;;;;;;;5032170;28;20470;-62
2022/07/04 12:53:45;;;;;;;4.15;1.55;;;;;;;;;;5031454;28;20083;-60
2022/07/04 12:56:31;;;;;;;3.53;1.42;;;;;;;;;;5020875;28;20041;-61
2022/07/04 12:58:58;;;;;;;3.03;1.38;;;;;;;;;;5006006;28;20091;-60
2022/07/04 13:01:23;;;;;;;3.00;1.40;;;;;;;;;;5031219;28;20044;-60
2022/07/04 13:03:49;;;;;;;3.25;1.48;;;;;;;;;;5029750;28;20429;-61
2022/07/04 13:06:14;;;;;;;2.92;1.50;;;;;;;;;;5031853;28;20030;-60
2022/07/04 13:08:40;;;;;;;3.13;1.48;;;;;;;;;;5014058;28;20484;-60
2022/07/04 13:13:49;;;;;;;5.10;1.50;;;;;;;;;;5032364;28;20040;-62
2022/07/04 13:16:14;;;;;;;3.10;1.30;;;;;;;;;;5030945;28;20029;-61
2022/07/04 13:18:40;;;;;;;6.68;1.50;;;;;;;;;;5029923;28;20025;-61
2022/07/04 13:21:05;;;;;;;4.18;1.50;;;;;;;;;;5030729;28;20058;-63
2022/07/04 13:23:31;;;;;;;2.45;1.30;;;;;;;;;;5028966;28;20030;-63
2022/07/04 13:25:56;;;;;;;4.05;1.50;;;;;;;;;;5025766;28;20036;-61
2022/07/04 13:28:21;;;;;;;2.83;1.40;;;;;;;;;;5028268;28;20065;-62
2022/07/04 13:30:47;;;;;;;4.82;1.50;;;;;;;;;;5029838;28;20095;-61
2022/07/04 13:33:12;;;;;;;6.85;1.35;;;;;;;;;;5028882;28;20025;-62
2022/07/04 13:35:38;;;;;;;2.53;1.40;;;;;;;;;;5031330;28;20029;-62
2022/07/04 13:38:03;;;;;;;3.15;1.30;;;;;;;;;;5032127;28;20033;-63
2022/07/04 13:40:29;;;;;;;4.18;1.80;;;;;;;;;;5027666;28;20824;-62
2022/07/04 13:42:58;;;;;;;3.00;1.50;;;;;;;;;;5029404;28;20033;-62
2022/07/04 13:45:25;;;;;;;7.13;1.70;;;;;;;;;;5031342;28;20029;-62
2022/07/04 13:47:51;;;;;;;3.25;1.40;;;;;;;;;;5030351;28;20508;-62
2022/07/04 13:50:17;;;;;;;3.10;1.40;;;;;;;;;;5031268;28;20029;-61
2022/07/04 13:52:43;;;;;;;5.28;1.58;;;;;;;;;;5029557;28;20044;-63
2022/07/04 13:55:09;;;;;;;3.38;1.38;;;;;;;;;;5012077;28;20065;-62
2022/07/04 13:57:35;;;;;;;3.15;1.17;;;;;;;;;;5028978;28;20061;-63
2022/07/04 14:00:01;;;;;;;2.05;1.20;;;;;;;;;;5012225;28;20030;-62
2022/07/04 14:02:27;;;;;;;2.97;1.30;;;;;;;;;;5013793;28;20113;-64
2022/07/04 14:04:52;;;;;;;3.58;1.40;;;;;;;;;;5023879;28;20033;-63
2022/07/04 14:07:18;;;;;;;3.17;1.35;;;;;;;;;;5024757;28;20115;-63
2022/07/04 14:09:43;;;;;;;6.68;1.40;;;;;;;;;;5029523;28;20038;-63
2022/07/04 14:12:09;;;;;;;3.90;1.50;;;;;;;;;;5009242;28;20037;-63
2022/07/04 14:14:35;;;;;;;4.28;1.50;;;;;;;;;;5031543;28;20034;-64
2022/07/04 14:17:00;;;;;;;5.20;1.48;;;;;;;;;;5028973;28;20083;-63
2022/07/04 14:19:26;;;;;;;3.40;1.52;;;;;;;;;;5030645;28;20117;-63
2022/07/04 14:21:51;;;;;;;3.88;1.70;;;;;;;;;;5006059;28;20030;-63
2022/07/04 14:24:17;;;;;;;7.38;1.55;;;;;;;;;;5030647;28;20466;-63
2022/07/04 14:26:43;;;;;;;3.70;1.40;;;;;;;;;;5030953;28;20034;-60
2022/07/04 14:29:08;;;;;;;4.18;1.60;;;;;;;;;;5029026;28;20040;-63
2022/07/04 14:31:34;;;;;;;2.92;1.20;;;;;;;;;;5026772;28;20465;-61
2022/07/04 14:33:59;;;;;;;2.58;1.50;;;;;;;;;;5027488;28;20041;-61
2022/07/04 14:36:25;;;;;;;2.10;1.40;;;;;;;;;;5006856;28;20463;-61
2022/07/04 14:38:50;;;;;;;3.22;1.48;;;;;;;;;;5029757;28;20319;-61
2022/07/04 14:41:15;;;;;;;1.80;1.30;;;;;;;;;;5028110;28;20393;-61
2022/07/04 14:43:43;;;;;;;5.75;1.42;;;;;;;;;;5033334;28;20397;-60
2022/07/04 14:46:09;;;;;;;5.40;1.60;;;;;;;;;;5033613;28;20033;-62
2022/07/04 14:48:36;;;;;;;2.65;1.20;;;;;;;;;;5039375;28;20402;-60
2022/07/04 14:51:02;;;;;;;3.10;1.23;;;;;;;;;;5034414;28;20382;-60
2022/07/04 14:53:28;;;;;;;4.65;1.40;;;;;;;;;;5031991;28;20029;-61
2022/07/04 14:55:53;;;;;;;4.45;1.50;;;;;;;;;;5015782;28;20124;-60
2022/07/04 14:58:19;;;;;;;4.28;1.45;;;;;;;;;;5020136;28;20100;-60
2022/07/04 15:00:44;;;;;;;3.83;1.40;;;;;;;;;;5028224;28;20462;-61
2022/07/04 15:03:10;;;;;;;3.38;1.67;;;;;;;;;;5032684;28;20026;-62
2022/07/04 15:05:35;;;;;;;3.55;1.45;;;;;;;;;;5032755;28;20128;-60